createdAt,value
2023-01-22T00:00:28.768Z,95337.88
2023-01-22T00:03:01.827Z,95336.25
2023-01-22T00:05:49.846Z,95342.97
2023-01-22T00:08:29.959Z,95339.59
2023-01-22T00:11:18.028Z,95336.31
2023-01-22T00:13:58.763Z,95337.16
2023-01-22T00:16:52.795Z,95331.28
2023-01-22T00:19:46.980Z,95337.88
2023-01-22T00:22:33.796Z,95342.06
2023-01-22T00:25:13.790Z,95338.72
2023-01-22T00:28:00.752Z,95349.53
2023-01-22T00:30:33.831Z,95346.94
2023-01-22T00:33:20.755Z,95341.03
2023-01-22T00:35:53.835Z,95347.72
2023-01-22T00:38:41.756Z,95355.22
2023-01-22T00:41:22.754Z,95353.53
2023-01-22T00:44:09.761Z,95361.97
2023-01-22T00:46:42.931Z,95356.03
2023-01-22T00:49:29.810Z,95362.72
2023-01-22T00:52:09.798Z,95371.09
2023-01-22T00:54:56.763Z,95393.75
2023-01-22T00:57:36.769Z,95377.88
2023-01-22T01:00:30.829Z,95383.03
2023-01-22T01:03:33.780Z,95383.94
2023-01-22T01:06:23.767Z,95390.66
2023-01-22T01:08:57.275Z,95383.03
2023-01-22T01:11:43.799Z,95379.56
2023-01-22T01:14:16.854Z,95382.06
2023-01-22T01:17:03.803Z,95385.47
2023-01-22T01:19:36.876Z,95379.69
2023-01-22T01:22:23.906Z,95375.41
2023-01-22T01:25:03.779Z,95385.47
2023-01-22T01:27:50.764Z,95380.53
2023-01-22T01:30:30.801Z,95384.72
2023-01-22T01:33:24.783Z,95382.22
2023-01-22T01:36:14.797Z,95380.59
2023-01-22T01:38:47.991Z,95378.91
2023-01-22T01:41:34.800Z,95392.28
2023-01-22T01:44:22.798Z,95376.34
2023-01-22T01:47:30.768Z,95375.44
2023-01-22T01:50:10.834Z,95386.31
2023-01-22T01:52:57.847Z,95391.28
2023-01-22T01:55:35.978Z,95395.41
2023-01-22T01:58:30.822Z,95392.81
2023-01-22T02:01:21.774Z,95408.81
2023-01-22T02:04:08.792Z,95407.13
2023-01-22T02:06:48.769Z,95408.81
2023-01-22T02:09:42.794Z,95410.50
2023-01-22T02:12:29.774Z,95407.94
2023-01-22T02:15:03.818Z,95391.91
2023-01-22T02:17:50.863Z,95398.63
2023-01-22T02:20:23.932Z,95402.09
2023-01-22T02:23:11.792Z,95385.34
2023-01-22T02:25:44.884Z,95397.03
2023-01-22T02:28:31.872Z,95395.38
2023-01-22T02:31:04.930Z,95399.53
2023-01-22T02:33:51.770Z,95391.06
2023-01-22T02:36:24.918Z,95399.50
2023-01-22T02:39:11.857Z,95396.88
2023-01-22T02:41:51.809Z,95399.25
2023-01-22T02:44:45.843Z,95395.81
2023-01-22T02:47:32.812Z,95395.81
2023-01-22T02:50:05.913Z,95398.22
2023-01-22T02:52:52.809Z,95392.44
2023-01-22T02:55:26.061Z,95403.22
2023-01-22T02:58:12.794Z,95398.22
2023-01-22T03:00:45.974Z,95400.78
2023-01-22T03:03:39.797Z,95402.38
2023-01-22T03:06:34.821Z,95404.69
2023-01-22T03:09:23.808Z,95405.59
2023-01-22T03:11:56.888Z,95410.69
2023-01-22T03:15:02.819Z,95398.97
2023-01-22T03:18:02.841Z,95396.47
2023-01-22T03:21:07.889Z,95396.47
2023-01-22T03:23:47.793Z,95396.31
2023-01-22T03:26:35.867Z,95398.00
2023-01-22T03:29:08.933Z,95399.78
2023-01-22T03:31:55.867Z,95394.78
2023-01-22T03:34:37.809Z,95404.97
2023-01-22T03:37:20.815Z,95394.09
2023-01-22T03:40:00.829Z,95400.56
2023-01-22T03:42:34.007Z,95411.44
2023-01-22T03:45:20.926Z,95403.94
2023-01-22T03:47:54.002Z,95404.81
2023-01-22T03:50:42.890Z,95403.84
2023-01-22T03:53:16.056Z,95399.78
2023-01-22T03:56:04.846Z,95398.13
2023-01-22T03:58:39.042Z,95394.72
2023-01-22T04:01:28.905Z,95388.03
2023-01-22T04:04:15.888Z,95389.78
2023-01-22T04:07:02.889Z,95402.34
2023-01-22T04:09:36.011Z,95399.88
2023-01-22T04:12:22.841Z,95397.38
2023-01-22T04:14:55.978Z,95402.34
2023-01-22T04:17:42.820Z,95400.72
2023-01-22T04:20:17.239Z,95403.28
2023-01-22T04:23:03.877Z,95411.69
2023-01-22T04:25:43.938Z,95405.03
2023-01-22T04:28:37.872Z,95398.34
2023-01-22T04:31:24.959Z,95397.50
2023-01-22T04:34:04.861Z,95397.56
2023-01-22T04:36:51.872Z,95397.44
2023-01-22T04:39:31.875Z,95388.22
2023-01-22T04:42:18.849Z,95404.13
2023-01-22T04:44:52.014Z,95409.97
2023-01-22T04:47:38.900Z,95405.75
2023-01-22T04:50:12.018Z,95412.53
2023-01-22T04:53:00.850Z,95421.09
2023-01-22T04:55:34.994Z,95409.22
2023-01-22T04:58:21.881Z,95411.69
2023-01-22T05:00:54.969Z,95421.72
2023-01-22T05:03:51.873Z,95425.00
2023-01-22T05:06:45.875Z,95442.66
2023-01-22T05:09:32.826Z,95449.28
2023-01-22T05:12:12.899Z,95449.28
2023-01-22T05:15:14.915Z,95453.59
2023-01-22T05:18:05.880Z,95452.84
2023-01-22T05:20:39.029Z,95457.94
2023-01-22T05:23:25.884Z,95458.84
2023-01-22T05:26:05.873Z,95473.94
2023-01-22T05:28:52.843Z,95467.31
2023-01-22T05:31:32.937Z,95474.91
2023-01-22T05:34:26.843Z,95465.69
2023-01-22T05:37:13.875Z,95463.88
2023-01-22T05:39:46.991Z,95458.94
2023-01-22T05:42:33.877Z,95449.84
2023-01-22T05:45:07.014Z,95448.09
2023-01-22T05:48:02.914Z,95463.22
2023-01-22T05:50:36.682Z,95454.81
2023-01-22T05:53:23.875Z,95462.34
2023-01-22T05:55:56.976Z,95454.81
2023-01-22T05:58:43.875Z,95453.97
2023-01-22T06:01:24.865Z,95453.88
2023-01-22T06:04:18.904Z,95443.00
2023-01-22T06:07:12.848Z,95440.38
2023-01-22T06:09:59.880Z,95432.88
2023-01-22T06:12:39.885Z,95439.59
2023-01-22T06:15:26.842Z,95458.16
2023-01-22T06:18:00.016Z,95452.31
2023-01-22T06:20:46.839Z,95461.56
2023-01-22T06:23:22.813Z,95477.56
2023-01-22T06:26:11.878Z,95483.38
2023-01-22T06:28:44.994Z,95489.31
2023-01-22T06:31:32.008Z,95489.22
2023-01-22T06:34:05.738Z,95494.25
2023-01-22T06:36:52.910Z,95496.75
2023-01-22T06:39:26.026Z,95518.53
2023-01-22T06:42:12.914Z,95522.03
2023-01-22T06:44:46.053Z,95528.81
2023-01-22T06:47:32.939Z,95528.06
2023-01-22T06:50:06.061Z,95520.56
2023-01-22T06:52:52.904Z,95528.19
2023-01-22T06:55:26.010Z,95524.00
2023-01-22T06:58:12.911Z,95526.59
2023-01-22T07:00:52.906Z,95517.38
2023-01-22T07:03:46.936Z,95520.78
2023-01-22T07:06:36.909Z,95525.91
2023-01-22T07:09:10.012Z,95525.19
2023-01-22T07:11:56.907Z,95514.25
2023-01-22T07:14:39.977Z,95521.03
2023-01-22T07:17:26.913Z,95526.16
2023-01-22T07:20:00.014Z,95530.38
2023-01-22T07:22:46.917Z,95533.75
2023-01-22T07:25:20.021Z,95527.00
2023-01-22T07:28:10.965Z,95537.91
2023-01-22T07:30:46.377Z,95543.72
2023-01-22T07:33:32.900Z,95539.66
2023-01-22T07:36:12.917Z,95534.63
2023-01-22T07:39:06.925Z,95530.34
2023-01-22T07:41:53.894Z,95526.94
2023-01-22T07:44:27.012Z,95532.53
2023-01-22T07:47:13.897Z,95535.03
2023-01-22T07:49:47.048Z,95534.34
2023-01-22T07:52:33.887Z,95534.13
2023-01-22T07:55:07.049Z,95538.34
2023-01-22T07:57:53.893Z,95538.53
2023-01-22T08:00:27.188Z,95551.06
2023-01-22T08:03:22.952Z,95550.13
2023-01-22T08:06:24.918Z,95546.09
2023-01-22T08:09:15.886Z,95558.75
2023-01-22T08:11:55.898Z,95573.13
2023-01-22T08:14:42.954Z,95563.06
2023-01-22T08:17:18.319Z,95568.25
2023-01-22T08:20:04.989Z,95570.00
2023-01-22T08:22:39.108Z,95567.63
2023-01-22T08:25:25.899Z,95568.66
2023-01-22T08:27:59.088Z,95563.84
2023-01-22T08:30:51.647Z,95553.84
2023-01-22T08:33:25.090Z,95574.03
2023-01-22T08:36:12.965Z,95583.25
2023-01-22T08:38:46.023Z,95558.16
2023-01-22T08:41:32.983Z,95561.59
2023-01-22T08:44:06.027Z,95568.44
2023-01-22T08:46:52.944Z,95569.34
2023-01-22T08:49:32.949Z,95569.56
2023-01-22T08:52:21.049Z,95572.06
2023-01-22T08:55:00.248Z,95569.63
2023-01-22T08:57:49.636Z,95567.31
2023-01-22T09:00:23.042Z,95576.69
2023-01-22T09:03:09.913Z,95575.63
2023-01-22T09:06:05.112Z,95594.78
2023-01-22T09:08:51.916Z,95593.97
2023-01-22T09:11:25.067Z,95593.06
2023-01-22T09:14:14.962Z,95604.03
2023-01-22T09:16:54.953Z,95599.19
2023-01-22T09:19:41.975Z,95598.63
2023-01-22T09:22:15.067Z,95590.34
2023-01-22T09:25:01.979Z,95600.56
2023-01-22T09:27:35.053Z,95601.53
2023-01-22T09:30:23.068Z,95595.81
2023-01-22T09:33:02.959Z,95606.00
2023-01-22T09:35:51.086Z,95587.75
2023-01-22T09:38:31.982Z,95577.13
2023-01-22T09:41:19.008Z,95584.53
2023-01-22T09:44:03.086Z,95586.88
2023-01-22T09:47:03.998Z,95591.88
2023-01-22T09:49:57.109Z,95601.88
2023-01-22T09:52:40.016Z,95594.34
2023-01-22T09:55:23.053Z,95605.31
2023-01-22T09:58:07.981Z,95602.03
2023-01-22T10:01:04.409Z,95600.47
2023-01-22T10:04:03.003Z,95597.88
2023-01-22T10:06:53.812Z,95596.13
2023-01-22T10:09:28.069Z,95588.44
2023-01-22T10:12:20.952Z,95595.16
2023-01-22T10:14:55.053Z,95587.53
2023-01-22T10:17:46.068Z,95585.09
2023-01-22T10:20:21.188Z,95591.81
2023-01-22T10:23:20.969Z,95586.75
2023-01-22T10:25:54.071Z,95586.78
2023-01-22T10:28:41.981Z,95583.53
2023-01-22T10:31:36.130Z,95596.19
2023-01-22T10:34:46.955Z,95624.69
2023-01-22T10:37:33.990Z,95617.19
2023-01-22T10:40:07.047Z,95617.25
2023-01-22T10:43:05.984Z,95617.31
2023-01-22T10:45:39.148Z,95606.34
2023-01-22T10:48:29.985Z,95610.66
2023-01-22T10:51:29.094Z,95593.09
2023-01-22T10:54:27.989Z,95613.06
2023-01-22T10:57:19.025Z,95610.53
2023-01-22T11:00:21.270Z,95600.47
2023-01-22T11:02:58.071Z,95603.88
2023-01-22T11:05:45.020Z,95619.03
2023-01-22T11:08:23.751Z,95607.31
2023-01-22T11:11:16.014Z,95599.88
2023-01-22T11:14:03.097Z,95606.66
2023-01-22T11:16:54.027Z,95598.97
2023-01-22T11:19:37.279Z,95599.69
2023-01-22T11:22:34.024Z,95603.88
2023-01-22T11:25:13.990Z,95594.75
2023-01-22T11:28:56.030Z,95597.31
2023-01-22T11:32:01.015Z,95597.34
2023-01-22T11:35:04.032Z,95599.94
2023-01-22T11:38:01.991Z,95611.81
2023-01-22T11:41:15.985Z,95614.47
2023-01-22T11:44:11.992Z,95620.47
2023-01-22T11:47:39.013Z,95622.34
2023-01-22T11:50:52.055Z,95615.75
2023-01-22T11:54:05.002Z,95619.16
2023-01-22T11:57:07.992Z,95607.41
2023-01-22T12:00:28.008Z,95609.09
2023-01-22T12:03:49.530Z,95603.22
2023-01-22T12:07:08.006Z,95597.28
2023-01-22T12:10:20.009Z,95601.47
2023-01-22T12:13:29.988Z,95609.94
2023-01-22T12:16:06.135Z,95618.41
2023-01-22T12:19:19.015Z,95641.97
2023-01-22T12:22:25.022Z,95643.78
2023-01-22T12:25:28.035Z,95649.13
2023-01-22T12:28:25.037Z,95630.97
2023-01-22T12:31:27.158Z,95625.00
2023-01-22T12:34:07.034Z,95630.66
2023-01-22T12:37:03.033Z,95637.72
2023-01-22T12:40:28.034Z,95640.44
2023-01-22T12:43:21.055Z,95641.47
2023-01-22T12:46:23.593Z,95638.09
2023-01-22T12:49:10.173Z,95632.09
2023-01-22T12:51:59.026Z,95636.81
2023-01-22T12:54:43.039Z,95641.75
2023-01-22T12:57:52.039Z,95630.56
2023-01-22T13:00:46.170Z,95633.81
2023-01-22T13:03:34.138Z,95632.91
2023-01-22T13:06:29.032Z,95638.63
2023-01-22T13:09:09.029Z,95635.06
2023-01-22T13:11:56.045Z,95642.72
2023-01-22T13:14:34.038Z,95657.06
2023-01-22T13:17:34.045Z,95662.22
2023-01-22T13:20:15.031Z,95664.81
2023-01-22T13:23:10.030Z,95670.78
2023-01-22T13:26:05.066Z,95681.88
2023-01-22T13:28:46.031Z,95682.81
2023-01-22T13:31:41.080Z,95681.97
2023-01-22T13:34:28.039Z,95672.66
2023-01-22T13:37:02.102Z,95682.66
2023-01-22T13:39:49.056Z,95688.41
2023-01-22T13:42:24.744Z,95693.41
2023-01-22T13:45:11.034Z,95691.72
2023-01-22T13:47:47.155Z,95698.31
2023-01-22T13:50:37.049Z,95691.59
2023-01-22T13:53:10.127Z,95690.81
2023-01-22T13:55:57.029Z,95700.91
2023-01-22T13:58:49.270Z,95700.94
2023-01-22T14:01:39.048Z,95712.69
2023-01-22T14:04:15.138Z,95716.88
2023-01-22T14:07:02.050Z,95717.53
2023-01-22T14:09:49.031Z,95723.47
2023-01-22T14:12:43.047Z,95728.53
2023-01-22T14:15:30.089Z,95726.84
2023-01-22T14:18:24.144Z,95741.94
2023-01-22T14:21:12.069Z,95732.72
2023-01-22T14:23:53.033Z,95732.63
2023-01-22T14:26:40.086Z,95735.03
2023-01-22T14:29:21.026Z,95733.31
2023-01-22T14:32:15.033Z,95730.69
2023-01-22T14:35:02.088Z,95727.97
2023-01-22T14:37:35.136Z,95735.47
2023-01-22T14:40:24.102Z,95745.50
2023-01-22T14:42:57.118Z,95744.59
2023-01-22T14:45:47.077Z,95754.63
2023-01-22T14:48:22.241Z,95754.50
2023-01-22T14:51:15.087Z,95764.34
2023-01-22T14:53:48.135Z,95768.53
2023-01-22T14:56:35.045Z,95770.16
2023-01-22T14:59:08.148Z,95776.00
2023-01-22T15:01:55.046Z,95771.75
2023-01-22T15:04:28.146Z,95779.31
2023-01-22T15:07:15.034Z,95776.66
2023-01-22T15:09:48.136Z,95771.53
2023-01-22T15:12:35.041Z,95768.97
2023-01-22T15:15:11.639Z,95780.72
2023-01-22T15:18:00.161Z,95779.88
2023-01-22T15:20:33.147Z,95787.31
2023-01-22T15:23:20.097Z,95790.53
2023-01-22T15:26:22.201Z,95795.34
2023-01-22T15:29:20.343Z,95795.34
2023-01-22T15:31:53.260Z,95795.34
2023-01-22T15:34:40.092Z,95802.91
2023-01-22T15:37:14.931Z,95805.38
2023-01-22T15:40:02.087Z,95806.16
2023-01-22T15:42:42.097Z,95804.31
2023-01-22T15:45:37.094Z,95812.69
2023-01-22T15:48:24.183Z,95814.19
2023-01-22T15:50:57.212Z,95819.25
2023-01-22T15:53:46.112Z,95815.88
2023-01-22T15:56:19.254Z,95819.16
2023-01-22T15:59:06.086Z,95822.44
2023-01-22T16:01:48.105Z,95828.31
2023-01-22T16:04:42.090Z,95836.72
2023-01-22T16:07:36.095Z,95848.47
2023-01-22T16:10:30.137Z,95853.41
2023-01-22T16:13:17.074Z,95867.50
2023-01-22T16:15:50.166Z,95864.03
2023-01-22T16:18:40.105Z,95874.06
2023-01-22T16:21:14.152Z,95881.66
2023-01-22T16:24:04.109Z,95885.03
2023-01-22T16:26:40.363Z,95894.28
2023-01-22T16:29:27.077Z,95901.06
2023-01-22T16:32:00.175Z,95902.75
2023-01-22T16:34:47.093Z,95907.81
2023-01-22T16:37:20.166Z,95906.94
2023-01-22T16:40:07.073Z,95914.44
2023-01-22T16:42:40.245Z,95917.78
2023-01-22T16:45:27.074Z,95913.66
2023-01-22T16:48:04.220Z,95903.59
2023-01-22T16:50:51.133Z,95902.66
2023-01-22T16:53:24.202Z,95905.09
2023-01-22T16:56:11.092Z,95906.78
2023-01-22T16:58:44.231Z,95908.56
2023-01-22T17:01:35.259Z,95910.97
2023-01-22T17:04:15.073Z,95915.16
2023-01-22T17:07:06.046Z,95919.28
2023-01-22T17:09:40.227Z,95917.53
2023-01-22T17:12:27.093Z,95919.06
2023-01-22T17:15:07.094Z,95918.97
2023-01-22T17:17:54.117Z,95920.59
2023-01-22T17:20:34.103Z,95920.63
2023-01-22T17:23:28.106Z,95927.22
2023-01-22T17:26:25.074Z,95927.16
2023-01-22T17:29:12.104Z,95926.25
2023-01-22T17:31:45.275Z,95928.75
2023-01-22T17:34:32.134Z,95921.88
2023-01-22T17:37:09.570Z,95927.00
2023-01-22T17:40:00.188Z,95930.50
2023-01-22T17:42:33.204Z,95933.81
2023-01-22T17:45:20.354Z,95933.03
2023-01-22T17:47:57.269Z,95950.69
2023-01-22T17:50:44.094Z,95952.47
2023-01-22T17:53:17.286Z,95955.94
2023-01-22T17:56:22.110Z,95957.66
2023-01-22T17:58:58.200Z,95964.47
2023-01-22T18:01:46.146Z,95970.34
2023-01-22T18:04:27.091Z,95971.03
2023-01-22T18:07:21.118Z,95971.88
2023-01-22T18:10:01.114Z,95967.56
2023-01-22T18:12:41.127Z,95967.41
2023-01-22T18:15:22.105Z,95972.38
2023-01-22T18:18:16.103Z,95970.66
2023-01-22T18:21:03.112Z,95974.81
2023-01-22T18:23:36.239Z,95972.28
2023-01-22T18:26:29.154Z,95974.66
2023-01-22T18:29:04.238Z,95981.91
2023-01-22T18:31:51.205Z,95981.06
2023-01-22T18:34:24.372Z,95987.78
2023-01-22T18:37:11.111Z,95997.00
2023-01-22T18:39:45.231Z,95994.31
2023-01-22T18:42:32.130Z,96000.78
2023-01-22T18:45:12.138Z,96006.56
2023-01-22T18:48:07.124Z,96000.63
2023-01-22T18:50:59.132Z,96002.22
2023-01-22T18:53:32.667Z,96004.78
2023-01-22T18:56:19.126Z,96020.66
2023-01-22T18:58:59.133Z,96030.81
2023-01-22T19:01:58.270Z,96028.22
2023-01-22T19:04:52.191Z,96038.13
2023-01-22T19:07:44.121Z,96032.19
2023-01-22T19:10:17.394Z,96025.50
2023-01-22T19:13:04.144Z,96024.56
2023-01-22T19:15:37.230Z,96027.66
2023-01-22T19:18:24.152Z,96028.50
2023-01-22T19:20:57.299Z,96027.59
2023-01-22T19:23:44.174Z,96032.44
2023-01-22T19:26:24.253Z,96045.84
2023-01-22T19:29:14.122Z,96044.19
2023-01-22T19:31:53.933Z,96056.09
2023-01-22T19:34:41.135Z,96052.75
2023-01-22T19:37:28.151Z,96059.47
2023-01-22T19:40:16.151Z,96055.69
2023-01-22T19:42:56.113Z,96059.59
2023-01-22T19:45:44.132Z,96060.44
2023-01-22T19:48:17.244Z,96057.13
2023-01-22T19:51:13.213Z,96066.31
2023-01-22T19:53:48.696Z,96073.75
2023-01-22T19:56:38.185Z,96067.91
2023-01-22T19:59:28.136Z,96067.88
2023-01-22T20:02:28.171Z,96062.03
2023-01-22T20:05:24.144Z,96067.78
2023-01-22T20:08:18.161Z,96062.78
2023-01-22T20:11:06.155Z,96061.59
2023-01-22T20:13:41.850Z,96062.22
2023-01-22T20:16:32.208Z,96065.66
2023-01-22T20:19:05.367Z,96068.94
2023-01-22T20:21:52.159Z,96068.16
2023-01-22T20:24:34.156Z,96079.16
2023-01-22T20:27:28.164Z,96069.22
2023-01-22T20:30:16.221Z,96067.34
2023-01-22T20:32:57.177Z,96077.22
2023-01-22T20:35:48.166Z,96063.56
2023-01-22T20:38:21.265Z,96067.81
2023-01-22T20:41:11.165Z,96061.84
2023-01-22T20:43:46.368Z,96064.34
2023-01-22T20:46:34.156Z,96069.38
2023-01-22T20:49:08.384Z,96073.56
2023-01-22T20:51:55.148Z,96068.38
2023-01-22T20:54:28.376Z,96079.00
2023-01-22T20:57:15.167Z,96074.59
2023-01-22T20:59:48.244Z,96076.09
2023-01-22T21:02:35.178Z,96075.25
2023-01-22T21:05:15.179Z,96076.91
2023-01-22T21:08:09.190Z,96083.53
2023-01-22T21:11:07.172Z,96093.44
2023-01-22T21:13:40.294Z,96093.38
2023-01-22T21:16:32.226Z,96105.78
2023-01-22T21:19:22.163Z,96114.88
2023-01-22T21:22:16.187Z,96117.31
2023-01-22T21:25:03.171Z,96122.13
2023-01-22T21:27:36.288Z,96120.28
2023-01-22T21:30:23.185Z,96107.59
2023-01-22T21:32:57.274Z,96108.34
2023-01-22T21:35:44.191Z,96100.00
2023-01-22T21:38:17.264Z,96104.25
2023-01-22T21:41:19.181Z,96089.09
2023-01-22T21:44:13.101Z,96079.84
2023-01-22T21:47:00.200Z,96089.09
2023-01-22T21:49:42.295Z,96087.44
2023-01-22T21:52:36.173Z,96082.38
2023-01-22T21:55:30.211Z,96093.63
2023-01-22T21:58:17.174Z,96099.19
2023-01-22T22:00:57.223Z,96099.91
2023-01-22T22:03:44.167Z,96114.91
2023-01-22T22:06:19.289Z,96134.75
2023-01-22T22:09:08.186Z,96133.00
2023-01-22T22:11:48.176Z,96134.66
2023-01-22T22:14:43.182Z,96137.06
2023-01-22T22:17:30.199Z,96148.69
2023-01-22T22:20:03.545Z,96148.59
2023-01-22T22:22:50.181Z,96145.22
2023-01-22T22:25:23.279Z,96149.25
2023-01-22T22:28:10.187Z,96152.47
2023-01-22T22:30:43.308Z,96151.53
2023-01-22T22:33:30.205Z,96151.50
2023-01-22T22:36:03.329Z,96145.59
2023-01-22T22:38:50.187Z,96139.63
2023-01-22T22:41:27.329Z,96142.09
2023-01-22T22:44:14.190Z,96137.72
2023-01-22T22:46:47.318Z,96140.09
2023-01-22T22:49:34.194Z,96145.69
2023-01-22T22:52:07.392Z,96150.41
2023-01-22T22:54:55.197Z,96152.69
2023-01-22T22:57:35.199Z,96153.44
2023-01-22T23:00:22.312Z,96152.69
2023-01-22T23:03:02.217Z,96160.38
2023-01-22T23:05:49.211Z,96160.44
2023-01-22T23:08:22.293Z,96157.22
2023-01-22T23:11:18.189Z,96164.09
2023-01-22T23:14:00.204Z,96156.56
2023-01-22T23:16:56.244Z,96169.91
2023-01-22T23:19:50.227Z,96171.50
2023-01-22T23:22:37.220Z,96175.72
2023-01-22T23:25:17.220Z,96172.50
2023-01-22T23:28:11.212Z,96177.75
2023-01-22T23:31:05.280Z,96168.56
2023-01-22T23:33:52.234Z,96167.75
2023-01-22T23:36:28.194Z,96169.41
2023-01-22T23:39:15.292Z,96166.19
2023-01-22T23:41:56.227Z,96165.31
2023-01-22T23:44:50.227Z,96167.03
2023-01-22T23:47:37.253Z,96179.75
2023-01-22T23:50:10.376Z,96185.75
2023-01-22T23:52:57.258Z,96195.50
2023-01-22T23:55:30.324Z,96189.78
2023-01-22T23:58:17.236Z,96187.31
